Gentry, AR

12:48 AM CST on February 01, 2015 (GMT -0600)
1/2 Mile South of Gentry | Change Station
CLOSE
Current Station
Personal Weather Station
Location: Gentry, AR
Elevation: 1225 ft
Nearby Weather Stations

Elev 1225 ft 36.26 °N, 94.49 °W | Updated 4 seconds ago

Rain
Rain
39.7 °F
Feels Like 36 °F
N
5.4
Wind Variable Wind from West
Gusts 5.4 mph

Today
High -- | Low -- °F
--% Chance of Precip.
Yesterday
High -- | Low -- °F
Precip. -- in
7:19 AM 5:44 PM
Waxing Gibbous, 93% visible
Pressure 29.88 in
Visibility 5.0 miles
Clouds Few 2700 ft
Mostly Cloudy 3700 ft
Overcast 5000 ft
Windchill 36 °F
Dew Point 38 °F
Humidity 95%
Rainfall 0.05 in
Snow Depth Not available.
UV 0 out of 12
Pollen 3.60 out of 12
Air Quality Not available.
Flu Activity Not available.
METAR KSLG 010615Z AUTO 18015G18KT 5SM FEW027 BKN037 OVC050 04/00 A2988 RMK AO1 P0008

More Conditions Fewer Conditions

Pressure 29.88 in
Visibility 5.0 miles
Clouds Few 2700 ft
Mostly Cloudy 3700 ft
Overcast 5000 ft
Windchill 36 °F
Dew Point 38 °F
Humidity 95%
Rainfall 0.05 in
Snow Depth Not available.
UV 0 out of 12
Pollen 3.60 out of 12
Air Quality Not available.
Flu Activity Not available.
METAR KSLG 010615Z AUTO 18015G18KT 5SM FEW027 BKN037 OVC050 04/00 A2988 RMK AO1 P0008

More Conditions Fewer Conditions

Nowcast | as of 11:53 PM CST on January 31, 2015

At 11:45 PM...National Weather Service Doppler radars continued to detect a large area of rain affecting all of eastern Oklahoma and northwest Arkansas. Precipitation amounts have remained rather light with around a five hundredth to ten hundredths per hour. This rain area was moving northeast...around 35 miles per hour. Through 1:00 am...rain or drizzle will persist across much of eastern Oklahoma and northwest Arkansas. Precipitation amounts are expected to remain rather light.

×

10-Day Weather Forecast

Almanac

Astronomy

Feb. 01, 2015 Rise Set
Actual Time
Civil Twilight
Nautical Twilight
Astronomical Twilight
Moon
Length of Visible Light
Length of Day
Tomorrow will be .
, % of the Moon is Illuminated

Today's Extremes

State Highs State Lows

Community

WunderPhotos

Upload Photos

1,792,324 photos uploaded!

WunderBlogs® & News

Nearby

Air Quality

  Air Quality AQ Index Pollutant
Not available.

Snow Depth

Station Depth Elevation

Earthquake Activity

City Distance Mag. Time & Date
Minimum magnitude displayed is 2.5.

Coastal Water Temperatures

Place Temperature

Nearby Weather Stations